Newbiggin-by-the-Sea, United Kingdom
Current Conditions -  °F | °C
As of 3:20 PM on Saturday 25 Oct 2014 (Local Time) from EGNT Reporting Station
Scattered Clouds Scattered Clouds  
Wind Chill: 55°   Ceiling: Unl
Heat Index: 55°   Visibility: 6mi
Dew Point: 45°   Wind: 17mph
Humidity: 67%   Direction: 230°SW
Pressure: 29.77"   Gusts: 33mph
Location:  55.19°N, 1.51°W
Report Text: EGNT 251420Z 23015G29KT 9999 SCT030 13/07 Q1008
Loading
Personal Weather Stations






























Interactive Weather Map
Tropical Storm Tracking
New forecast layout! Learn more

10-Day Weather Forecast

Advertisements
Track Severe Weather on mobile